sensor_id;sensor_type;location;lat;lon;timestamp;pressure;altitude;pressure_sealevel;temperature;humidity
72798;BME280;61084;55.816;37.036;2023-07-30T00:02:23;98569.69;;;14.85;68.48
72798;BME280;61084;55.816;37.036;2023-07-30T00:04:49;98571.50;;;14.85;68.54
72798;BME280;61084;55.816;37.036;2023-07-30T00:07:15;98566.47;;;14.82;68.48
72798;BME280;61084;55.816;37.036;2023-07-30T00:09:42;98567.44;;;14.81;69.04
72798;BME280;61084;55.816;37.036;2023-07-30T00:12:09;98562.16;;;14.81;68.60
72798;BME280;61084;55.816;37.036;2023-07-30T00:14:35;98558.53;;;14.82;68.72
72798;BME280;61084;55.816;37.036;2023-07-30T00:17:02;98553.09;;;14.83;69.12
72798;BME280;61084;55.816;37.036;2023-07-30T00:19:28;98554.09;;;14.82;68.95
72798;BME280;61084;55.816;37.036;2023-07-30T00:21:54;98562.88;;;14.83;68.98
72798;BME280;61084;55.816;37.036;2023-07-30T00:24:20;98564.66;;;14.82;69.17
72798;BME280;61084;55.816;37.036;2023-07-30T00:26:46;98559.25;;;14.84;69.44
72798;BME280;61084;55.816;37.036;2023-07-30T00:29:12;98550.34;;;14.85;69.86
72798;BME280;61084;55.816;37.036;2023-07-30T00:31:38;98559.56;;;14.90;70.28
72798;BME280;61084;55.816;37.036;2023-07-30T00:34:04;98554.88;;;14.94;70.14
72798;BME280;61084;55.816;37.036;2023-07-30T00:36:31;98549.19;;;14.98;70.48
72798;BME280;61084;55.816;37.036;2023-07-30T00:38:57;98557.69;;;15.02;70.44
72798;BME280;61084;55.816;37.036;2023-07-30T00:41:22;98548.69;;;15.04;70.68
72798;BME280;61084;55.816;37.036;2023-07-30T00:43:48;98556.09;;;15.10;69.91
72798;BME280;61084;55.816;37.036;2023-07-30T00:46:15;98549.81;;;15.11;71.82
72798;BME280;61084;55.816;37.036;2023-07-30T00:48:41;98550.56;;;15.14;70.59
72798;BME280;61084;55.816;37.036;2023-07-30T00:51:07;98546.78;;;15.16;70.23
72798;BME280;61084;55.816;37.036;2023-07-30T00:53:34;98550.97;;;15.19;70.73
72798;BME280;61084;55.816;37.036;2023-07-30T00:56:02;98538.59;;;15.19;70.72
72798;BME280;61084;55.816;37.036;2023-07-30T00:58:28;98548.22;;;15.20;70.68
72798;BME280;61084;55.816;37.036;2023-07-30T01:00:58;98547.25;;;15.21;70.41
72798;BME280;61084;55.816;37.036;2023-07-30T01:03:25;98548.09;;;15.22;70.80
72798;BME280;61084;55.816;37.036;2023-07-30T01:05:51;98540.16;;;15.22;70.35
72798;BME280;61084;55.816;37.036;2023-07-30T01:08:18;98551.56;;;15.22;70.85
72798;BME280;61084;55.816;37.036;2023-07-30T01:10:45;98547.09;;;15.23;70.61
72798;BME280;61084;55.816;37.036;2023-07-30T01:13:12;98534.00;;;15.21;71.30
72798;BME280;61084;55.816;37.036;2023-07-30T01:15:39;98536.81;;;15.20;71.17
72798;BME280;61084;55.816;37.036;2023-07-30T01:18:06;98545.69;;;15.19;70.73
72798;BME280;61084;55.816;37.036;2023-07-30T01:20:32;98534.25;;;15.18;70.93
72798;BME280;61084;55.816;37.036;2023-07-30T01:22:59;98538.75;;;15.18;71.37
72798;BME280;61084;55.816;37.036;2023-07-30T01:25:28;98539.56;;;15.18;72.12
72798;BME280;61084;55.816;37.036;2023-07-30T01:27:59;98546.66;;;15.18;71.82
72798;BME280;61084;55.816;37.036;2023-07-30T01:30:35;98550.13;;;15.18;71.40
72798;BME280;61084;55.816;37.036;2023-07-30T01:33:04;98549.31;;;15.18;71.32
72798;BME280;61084;55.816;37.036;2023-07-30T01:35:32;98547.63;;;15.17;71.18
72798;BME280;61084;55.816;37.036;2023-07-30T01:37:58;98553.63;;;15.19;70.70
72798;BME280;61084;55.816;37.036;2023-07-30T01:40:24;98551.97;;;15.18;71.81
72798;BME280;61084;55.816;37.036;2023-07-30T01:42:50;98547.78;;;15.15;72.33
72798;BME280;61084;55.816;37.036;2023-07-30T01:45:17;98548.47;;;15.17;71.45
72798;BME280;61084;55.816;37.036;2023-07-30T01:47:43;98539.69;;;15.17;71.42
72798;BME280;61084;55.816;37.036;2023-07-30T01:50:10;98544.97;;;15.17;71.29
72798;BME280;61084;55.816;37.036;2023-07-30T01:52:36;98552.91;;;15.17;71.69
72798;BME280;61084;55.816;37.036;2023-07-30T01:55:02;98551.13;;;15.17;71.94
72798;BME280;61084;55.816;37.036;2023-07-30T01:57:30;98555.31;;;15.20;71.54
72798;BME280;61084;55.816;37.036;2023-07-30T01:59:56;98546.53;;;15.19;71.56
72798;BME280;61084;55.816;37.036;2023-07-30T02:02:22;98556.97;;;15.21;70.80
72798;BME280;61084;55.816;37.036;2023-07-30T02:04:48;98555.16;;;15.21;71.91
72798;BME280;61084;55.816;37.036;2023-07-30T02:07:14;98553.38;;;15.22;71.90
72798;BME280;61084;55.816;37.036;2023-07-30T02:09:39;98557.56;;;15.24;71.70
72798;BME280;61084;55.816;37.036;2023-07-30T02:12:06;98555.72;;;15.25;72.42
72798;BME280;61084;55.816;37.036;2023-07-30T02:14:32;98555.63;;;15.26;71.68
72798;BME280;61084;55.816;37.036;2023-07-30T02:17:03;98560.91;;;15.26;71.85
72798;BME280;61084;55.816;37.036;2023-07-30T02:19:29;98556.47;;;15.27;71.75
72798;BME280;61084;55.816;37.036;2023-07-30T02:21:56;98554.53;;;15.29;71.99
72798;BME280;61084;55.816;37.036;2023-07-30T02:24:21;98555.34;;;15.29;71.58
72798;BME280;61084;55.816;37.036;2023-07-30T02:26:47;98552.84;;;15.28;71.88
72798;BME280;61084;55.816;37.036;2023-07-30T02:29:14;98556.31;;;15.28;72.93
72798;BME280;61084;55.816;37.036;2023-07-30T02:31:39;98564.25;;;15.28;72.07
72798;BME280;61084;55.816;37.036;2023-07-30T02:34:05;98557.88;;;15.31;73.29
72798;BME280;61084;55.816;37.036;2023-07-30T02:36:32;98561.22;;;15.33;71.92
72798;BME280;61084;55.816;37.036;2023-07-30T02:38:58;98567.38;;;15.33;72.22
72798;BME280;61084;55.816;37.036;2023-07-30T02:41:24;98558.19;;;15.37;71.86
72798;BME280;61084;55.816;37.036;2023-07-30T02:43:50;98558.75;;;15.41;71.64
72798;BME280;61084;55.816;37.036;2023-07-30T02:46:15;98558.53;;;15.44;71.83
72798;BME280;61084;55.816;37.036;2023-07-30T02:48:41;98564.53;;;15.46;71.53
72798;BME280;61084;55.816;37.036;2023-07-30T02:51:07;98571.38;;;15.48;71.96
72798;BME280;61084;55.816;37.036;2023-07-30T02:53:33;98561.50;;;15.50;71.70
72798;BME280;61084;55.816;37.036;2023-07-30T02:55:59;98568.28;;;15.53;71.79
72798;BME280;61084;55.816;37.036;2023-07-30T02:58:25;98568.88;;;15.56;71.78
72798;BME280;61084;55.816;37.036;2023-07-30T03:00:50;98568.88;;;15.56;72.28
72798;BME280;61084;55.816;37.036;2023-07-30T03:03:16;98571.41;;;15.58;71.62
72798;BME280;61084;55.816;37.036;2023-07-30T03:05:42;98574.88;;;15.58;71.68
72798;BME280;61084;55.816;37.036;2023-07-30T03:08:09;98577.28;;;15.61;71.94
72798;BME280;61084;55.816;37.036;2023-07-30T03:10:36;98576.16;;;15.64;71.98
72798;BME280;61084;55.816;37.036;2023-07-30T03:13:02;98575.03;;;15.66;71.65
72798;BME280;61084;55.816;37.036;2023-07-30T03:15:28;98585.38;;;15.69;71.68
72798;BME280;61084;55.816;37.036;2023-07-30T03:17:54;98584.28;;;15.72;71.66
72798;BME280;61084;55.816;37.036;2023-07-30T03:20:20;98585.81;;;15.74;71.75
72798;BME280;61084;55.816;37.036;2023-07-30T03:22:45;98584.97;;;15.74;71.79
72798;BME280;61084;55.816;37.036;2023-07-30T03:25:11;98587.63;;;15.74;71.99
72798;BME280;61084;55.816;37.036;2023-07-30T03:27:37;98594.47;;;15.76;71.92
72798;BME280;61084;55.816;37.036;2023-07-30T03:30:04;98596.72;;;15.81;71.82
72798;BME280;61084;55.816;37.036;2023-07-30T03:32:32;98596.44;;;15.84;71.80
72798;BME280;61084;55.816;37.036;2023-07-30T03:34:58;98596.56;;;15.82;71.80
72798;BME280;61084;55.816;37.036;2023-07-30T03:37:23;98600.06;;;15.83;71.58
72798;BME280;61084;55.816;37.036;2023-07-30T03:39:49;98605.06;;;15.86;71.87
72798;BME280;61084;55.816;37.036;2023-07-30T03:42:15;98604.41;;;15.94;71.78
72798;BME280;61084;55.816;37.036;2023-07-30T03:44:41;98603.03;;;15.99;71.98
72798;BME280;61084;55.816;37.036;2023-07-30T03:47:07;98611.28;;;16.06;71.63
72798;BME280;61084;55.816;37.036;2023-07-30T03:49:34;98612.41;;;16.13;71.76
72798;BME280;61084;55.816;37.036;2023-07-30T03:52:00;98613.41;;;16.21;71.81
72798;BME280;61084;55.816;37.036;2023-07-30T03:54:26;98618.16;;;16.27;71.73
72798;BME280;61084;55.816;37.036;2023-07-30T03:56:53;98619.72;;;16.30;71.98
72798;BME280;61084;55.816;37.036;2023-07-30T03:59:19;98623.06;;;16.32;71.68
72798;BME280;61084;55.816;37.036;2023-07-30T04:01:44;98616.78;;;16.33;71.46
72798;BME280;61084;55.816;37.036;2023-07-30T04:04:10;98615.53;;;16.37;71.64
72798;BME280;61084;55.816;37.036;2023-07-30T04:06:36;98618.34;;;16.45;71.66
72798;BME280;61084;55.816;37.036;2023-07-30T04:09:02;98619.09;;;16.56;71.46
72798;BME280;61084;55.816;37.036;2023-07-30T04:11:29;98625.09;;;16.68;71.73
72798;BME280;61084;55.816;37.036;2023-07-30T04:13:57;98619.66;;;16.79;71.57
72798;BME280;61084;55.816;37.036;2023-07-30T04:16:23;98623.28;;;16.88;71.19
72798;BME280;61084;55.816;37.036;2023-07-30T04:18:49;98630.41;;;16.97;71.07
72798;BME280;61084;55.816;37.036;2023-07-30T04:21:14;98624.25;;;17.06;70.97
72798;BME280;61084;55.816;37.036;2023-07-30T04:23:41;98628.03;;;17.13;71.00
72798;BME280;61084;55.816;37.036;2023-07-30T04:26:07;98622.84;;;17.21;71.15
72798;BME280;61084;55.816;37.036;2023-07-30T04:28:33;98621.16;;;17.29;70.83
72798;BME280;61084;55.816;37.036;2023-07-30T04:30:59;98623.97;;;17.38;71.24
72798;BME280;61084;55.816;37.036;2023-07-30T04:33:26;98631.66;;;17.50;70.76
72798;BME280;61084;55.816;37.036;2023-07-30T04:35:53;98624.63;;;17.59;70.93
72798;BME280;61084;55.816;37.036;2023-07-30T04:38:19;98638.00;;;17.67;70.11
72798;BME280;61084;55.816;37.036;2023-07-30T04:40:46;98636.31;;;17.75;70.03
72798;BME280;61084;55.816;37.036;2023-07-30T04:43:13;98636.13;;;17.86;70.31
72798;BME280;61084;55.816;37.036;2023-07-30T04:45:42;98633.47;;;17.96;70.03
72798;BME280;61084;55.816;37.036;2023-07-30T04:48:08;98632.88;;;18.02;69.73
72798;BME280;61084;55.816;37.036;2023-07-30T04:50:34;98638.28;;;18.10;70.06
72798;BME280;61084;55.816;37.036;2023-07-30T04:53:00;98641.75;;;18.20;69.65
72798;BME280;61084;55.816;37.036;2023-07-30T04:55:26;98637.13;;;18.22;69.32
72798;BME280;61084;55.816;37.036;2023-07-30T04:57:52;98643.47;;;18.29;69.30
72798;BME280;61084;55.816;37.036;2023-07-30T05:00:17;98641.91;;;18.36;69.28
72798;BME280;61084;55.816;37.036;2023-07-30T05:02:43;98649.56;;;18.49;69.20
72798;BME280;61084;55.816;37.036;2023-07-30T05:05:09;98648.91;;;18.64;69.13
72798;BME280;61084;55.816;37.036;2023-07-30T05:07:35;98653.16;;;18.75;68.50
72798;BME280;61084;55.816;37.036;2023-07-30T05:10:02;98654.81;;;18.86;68.45
72798;BME280;61084;55.816;37.036;2023-07-30T05:12:30;98658.91;;;18.98;68.41
72798;BME280;61084;55.816;37.036;2023-07-30T05:14:56;98662.75;;;19.03;67.79
72798;BME280;61084;55.816;37.036;2023-07-30T05:17:21;98665.66;;;19.10;68.02
72798;BME280;61084;55.816;37.036;2023-07-30T05:19:47;98667.56;;;19.17;67.79
72798;BME280;61084;55.816;37.036;2023-07-30T05:22:13;98673.09;;;19.24;67.27
72798;BME280;61084;55.816;37.036;2023-07-30T05:24:39;98666.31;;;19.29;67.20
72798;BME280;61084;55.816;37.036;2023-07-30T05:27:05;98674.09;;;19.40;67.33
72798;BME280;61084;55.816;37.036;2023-07-30T05:29:31;98666.53;;;19.53;67.04
72798;BME280;61084;55.816;37.036;2023-07-30T05:31:56;98675.81;;;19.67;67.20
72798;BME280;61084;55.816;37.036;2023-07-30T05:34:22;98671.84;;;19.71;66.62
72798;BME280;61084;55.816;37.036;2023-07-30T05:36:48;98677.31;;;19.70;66.31
72798;BME280;61084;55.816;37.036;2023-07-30T05:39:14;98671.53;;;19.74;66.58
72798;BME280;61084;55.816;37.036;2023-07-30T05:41:40;98668.44;;;19.87;66.28
72798;BME280;61084;55.816;37.036;2023-07-30T05:44:05;98666.50;;;19.97;66.23
72798;BME280;61084;55.816;37.036;2023-07-30T05:46:31;98666.22;;;20.08;66.13
72798;BME280;61084;55.816;37.036;2023-07-30T05:48:57;98660.34;;;20.22;65.98
72798;BME280;61084;55.816;37.036;2023-07-30T05:51:23;98662.56;;;20.35;65.78
72798;BME280;61084;55.816;37.036;2023-07-30T05:53:48;98661.78;;;20.42;65.25
72798;BME280;61084;55.816;37.036;2023-07-30T05:56:16;98670.28;;;20.54;65.30
72798;BME280;61084;55.816;37.036;2023-07-30T05:58:44;98671.16;;;20.62;64.51
72798;BME280;61084;55.816;37.036;2023-07-30T06:01:10;98675.88;;;20.76;64.83
72798;BME280;61084;55.816;37.036;2023-07-30T06:03:37;98663.56;;;20.83;64.37
72798;BME280;61084;55.816;37.036;2023-07-30T06:06:03;98666.22;;;20.91;63.72
72798;BME280;61084;55.816;37.036;2023-07-30T06:08:29;98666.25;;;20.99;63.74
72798;BME280;61084;55.816;37.036;2023-07-30T06:11:00;98667.13;;;21.08;63.82
72798;BME280;61084;55.816;37.036;2023-07-30T06:13:27;98668.31;;;21.14;63.42
72798;BME280;61084;55.816;37.036;2023-07-30T06:15:53;98659.97;;;21.25;62.92
72798;BME280;61084;55.816;37.036;2023-07-30T06:18:19;98666.31;;;21.40;63.37
72798;BME280;61084;55.816;37.036;2023-07-30T06:20:45;98655.31;;;21.51;62.78
72798;BME280;61084;55.816;37.036;2023-07-30T06:23:11;98653.13;;;21.54;61.92
72798;BME280;61084;55.816;37.036;2023-07-30T06:25:36;98649.59;;;21.62;62.06
72798;BME280;61084;55.816;37.036;2023-07-30T06:28:02;98651.75;;;21.74;61.99
72798;BME280;61084;55.816;37.036;2023-07-30T06:30:28;98649.25;;;21.81;61.85
72798;BME280;61084;55.816;37.036;2023-07-30T06:32:54;98646.56;;;21.81;59.85
72798;BME280;61084;55.816;37.036;2023-07-30T06:35:20;98655.94;;;21.85;61.27
72798;BME280;61084;55.816;37.036;2023-07-30T06:37:46;98641.56;;;21.94;60.98
72798;BME280;61084;55.816;37.036;2023-07-30T06:40:12;98650.03;;;22.06;61.17
72798;BME280;61084;55.816;37.036;2023-07-30T06:42:38;98642.97;;;22.21;60.84
72798;BME280;61084;55.816;37.036;2023-07-30T06:45:04;98643.09;;;22.27;60.74
72798;BME280;61084;55.816;37.036;2023-07-30T06:47:31;98635.88;;;22.36;60.88
72798;BME280;61084;55.816;37.036;2023-07-30T06:49:57;98641.88;;;22.46;59.75
72798;BME280;61084;55.816;37.036;2023-07-30T06:52:23;98638.66;;;22.50;59.48
72798;BME280;61084;55.816;37.036;2023-07-30T06:54:48;98642.28;;;22.58;59.39
72798;BME280;61084;55.816;37.036;2023-07-30T06:57:14;98638.97;;;22.64;59.32
72798;BME280;61084;55.816;37.036;2023-07-30T06:59:40;98640.75;;;22.71;57.62
72798;BME280;61084;55.816;37.036;2023-07-30T07:02:06;98649.94;;;22.69;56.33
72798;BME280;61084;55.816;37.036;2023-07-30T07:04:32;98637.34;;;22.77;59.35
72798;BME280;61084;55.816;37.036;2023-07-30T07:06:57;98632.44;;;22.89;58.48
72798;BME280;61084;55.816;37.036;2023-07-30T07:09:23;98635.56;;;23.00;57.81
72798;BME280;61084;55.816;37.036;2023-07-30T07:11:49;98632.56;;;22.95;56.55
72798;BME280;61084;55.816;37.036;2023-07-30T07:14:15;98632.03;;;23.00;57.16
72798;BME280;61084;55.816;37.036;2023-07-30T07:16:41;98628.94;;;23.11;57.20
72798;BME280;61084;55.816;37.036;2023-07-30T07:19:06;98623.34;;;23.20;56.96
72798;BME280;61084;55.816;37.036;2023-07-30T07:21:32;98627.78;;;23.28;56.58
72798;BME280;61084;55.816;37.036;2023-07-30T07:23:58;98623.34;;;23.20;56.74
72798;BME280;61084;55.816;37.036;2023-07-30T07:26:24;98618.00;;;23.20;55.96
72798;BME280;61084;55.816;37.036;2023-07-30T07:28:50;98622.97;;;23.23;56.28
72798;BME280;61084;55.816;37.036;2023-07-30T07:31:16;98619.16;;;23.41;56.57
72798;BME280;61084;55.816;37.036;2023-07-30T07:33:44;98621.06;;;23.55;56.00
72798;BME280;61084;55.816;37.036;2023-07-30T07:36:10;98629.22;;;23.61;54.77
72798;BME280;61084;55.816;37.036;2023-07-30T07:38:36;98632.00;;;23.68;54.29
72798;BME280;61084;55.816;37.036;2023-07-30T07:41:02;98628.47;;;23.67;55.58
72798;BME280;61084;55.816;37.036;2023-07-30T07:43:28;98630.72;;;23.78;56.30
72798;BME280;61084;55.816;37.036;2023-07-30T07:45:54;98633.19;;;23.80;54.56
72798;BME280;61084;55.816;37.036;2023-07-30T07:48:19;98626.72;;;23.74;53.85
72798;BME280;61084;55.816;37.036;2023-07-30T07:50:45;98629.13;;;23.84;54.69
72798;BME280;61084;55.816;37.036;2023-07-30T07:53:11;98634.13;;;23.87;55.03
72798;BME280;61084;55.816;37.036;2023-07-30T07:55:37;98629.13;;;23.69;49.54
72798;BME280;61084;55.816;37.036;2023-07-30T07:58:03;98640.28;;;23.58;53.92
72798;BME280;61084;55.816;37.036;2023-07-30T08:00:29;98633.63;;;23.69;54.18
72798;BME280;61084;55.816;37.036;2023-07-30T08:02:54;98629.31;;;23.82;54.55
72798;BME280;61084;55.816;37.036;2023-07-30T08:05:20;98633.13;;;23.88;50.63
72798;BME280;61084;55.816;37.036;2023-07-30T08:07:46;98628.56;;;23.88;52.44
72798;BME280;61084;55.816;37.036;2023-07-30T08:10:12;98630.44;;;24.03;52.91
72798;BME280;61084;55.816;37.036;2023-07-30T08:12:38;98621.69;;;24.09;49.59
72798;BME280;61084;55.816;37.036;2023-07-30T08:15:04;98617.41;;;24.14;52.71
72798;BME280;61084;55.816;37.036;2023-07-30T08:17:31;98619.47;;;24.27;53.39
72798;BME280;61084;55.816;37.036;2023-07-30T08:19:56;98627.41;;;24.35;53.59
72798;BME280;61084;55.816;37.036;2023-07-30T08:22:22;98631.56;;;24.37;52.83
72798;BME280;61084;55.816;37.036;2023-07-30T08:24:48;98621.75;;;24.30;53.10
72798;BME280;61084;55.816;37.036;2023-07-30T08:27:14;98631.69;;;24.29;52.72
72798;BME280;61084;55.816;37.036;2023-07-30T08:29:40;98636.75;;;24.39;52.59
72798;BME280;61084;55.816;37.036;2023-07-30T08:32:06;98629.41;;;24.47;51.74
72798;BME280;61084;55.816;37.036;2023-07-30T08:34:32;98630.69;;;24.51;51.62
72798;BME280;61084;55.816;37.036;2023-07-30T08:36:58;98639.66;;;24.58;51.89
72798;BME280;61084;55.816;37.036;2023-07-30T08:39:24;98629.63;;;24.46;51.50
72798;BME280;61084;55.816;37.036;2023-07-30T08:41:49;98624.25;;;24.46;52.04
72798;BME280;61084;55.816;37.036;2023-07-30T08:44:16;98628.22;;;24.50;52.08
72798;BME280;61084;55.816;37.036;2023-07-30T08:46:42;98623.75;;;24.57;51.94
72798;BME280;61084;55.816;37.036;2023-07-30T08:49:08;98618.81;;;24.75;51.26
72798;BME280;61084;55.816;37.036;2023-07-30T08:51:36;98625.75;;;24.84;51.55
72798;BME280;61084;55.816;37.036;2023-07-30T08:54:03;98621.91;;;24.93;51.99
72798;BME280;61084;55.816;37.036;2023-07-30T08:56:30;98625.16;;;24.89;48.21
72798;BME280;61084;55.816;37.036;2023-07-30T08:58:56;98629.91;;;24.87;51.92
72798;BME280;61084;55.816;37.036;2023-07-30T09:01:30;98628.44;;;24.84;50.35
72798;BME280;61084;55.816;37.036;2023-07-30T09:03:59;98641.66;;;24.71;50.98
72798;BME280;61084;55.816;37.036;2023-07-30T09:06:28;98641.22;;;24.67;50.41
72798;BME280;61084;55.816;37.036;2023-07-30T09:08:54;98625.19;;;24.74;51.52
72798;BME280;61084;55.816;37.036;2023-07-30T09:11:20;98631.50;;;24.81;50.19
72798;BME280;61084;55.816;37.036;2023-07-30T09:13:46;98625.31;;;24.81;50.90
72798;BME280;61084;55.816;37.036;2023-07-30T09:16:13;98629.34;;;24.91;50.48
72798;BME280;61084;55.816;37.036;2023-07-30T09:18:45;98626.84;;;25.11;50.36
72798;BME280;61084;55.816;37.036;2023-07-30T09:21:12;98630.44;;;25.18;49.10
72798;BME280;61084;55.816;37.036;2023-07-30T09:23:40;98640.09;;;25.12;50.04
72798;BME280;61084;55.816;37.036;2023-07-30T09:26:06;98639.22;;;25.05;47.88
72798;BME280;61084;55.816;37.036;2023-07-30T09:28:32;98641.69;;;25.07;50.21
72798;BME280;61084;55.816;37.036;2023-07-30T09:31:07;98637.22;;;25.14;48.31
72798;BME280;61084;55.816;37.036;2023-07-30T09:33:34;98632.56;;;25.22;46.64
72798;BME280;61084;55.816;37.036;2023-07-30T09:36:03;98645.22;;;25.28;47.97
72798;BME280;61084;55.816;37.036;2023-07-30T09:38:30;98642.31;;;25.30;49.06
72798;BME280;61084;55.816;37.036;2023-07-30T09:41:02;98644.69;;;25.39;47.58
72798;BME280;61084;55.816;37.036;2023-07-30T09:43:31;98642.53;;;25.50;45.00
72798;BME280;61084;55.816;37.036;2023-07-30T09:46:07;98638.00;;;25.50;48.11
72798;BME280;61084;55.816;37.036;2023-07-30T09:48:34;98647.28;;;25.48;47.84
72798;BME280;61084;55.816;37.036;2023-07-30T09:51:02;98641.75;;;25.56;49.33
72798;BME280;61084;55.816;37.036;2023-07-30T09:53:33;98644.53;;;25.69;48.34
72798;BME280;61084;55.816;37.036;2023-07-30T09:56:04;98642.59;;;25.84;49.33
72798;BME280;61084;55.816;37.036;2023-07-30T09:58:32;98643.25;;;25.86;48.52
72798;BME280;61084;55.816;37.036;2023-07-30T10:00:58;98651.25;;;25.79;47.64
72798;BME280;61084;55.816;37.036;2023-07-30T10:03:26;98653.22;;;25.64;47.95
72798;BME280;61084;55.816;37.036;2023-07-30T10:05:55;98643.00;;;25.53;45.36
72798;BME280;61084;55.816;37.036;2023-07-30T10:08:24;98653.09;;;25.51;47.32
72798;BME280;61084;55.816;37.036;2023-07-30T10:10:53;98650.53;;;25.64;46.55
72798;BME280;61084;55.816;37.036;2023-07-30T10:13:20;98646.53;;;25.81;47.96
72798;BME280;61084;55.816;37.036;2023-07-30T10:15:46;98636.69;;;26.01;48.20
72798;BME280;61084;55.816;37.036;2023-07-30T10:18:13;98648.31;;;26.02;45.99
72798;BME280;61084;55.816;37.036;2023-07-30T10:20:40;98653.75;;;25.81;46.13
72798;BME280;61084;55.816;37.036;2023-07-30T10:23:06;98656.13;;;25.69;47.32
72798;BME280;61084;55.816;37.036;2023-07-30T10:28:01;98655.75;;;25.72;47.44
72798;BME280;61084;55.816;37.036;2023-07-30T10:30:31;98650.84;;;25.82;47.23
72798;BME280;61084;55.816;37.036;2023-07-30T10:33:03;98644.31;;;25.91;44.47
72798;BME280;61084;55.816;37.036;2023-07-30T10:35:42;98648.09;;;26.03;46.83
72798;BME280;61084;55.816;37.036;2023-07-30T10:38:29;98654.31;;;26.04;45.84
72798;BME280;61084;55.816;37.036;2023-07-30T10:41:08;98644.19;;;26.06;45.28
72798;BME280;61084;55.816;37.036;2023-07-30T10:43:42;98648.50;;;26.28;46.41
72798;BME280;61084;55.816;37.036;2023-07-30T10:46:10;98641.09;;;26.43;46.34
72798;BME280;61084;55.816;37.036;2023-07-30T10:48:44;98645.66;;;26.43;45.61
72798;BME280;61084;55.816;37.036;2023-07-30T10:51:14;98646.53;;;26.56;46.23
72798;BME280;61084;55.816;37.036;2023-07-30T10:53:46;98654.28;;;26.72;46.64
72798;BME280;61084;55.816;37.036;2023-07-30T10:56:16;98638.63;;;26.89;47.55
72798;BME280;61084;55.816;37.036;2023-07-30T10:58:43;98643.63;;;26.99;46.72
72798;BME280;61084;55.816;37.036;2023-07-30T11:01:14;98643.81;;;27.04;46.75
72798;BME280;61084;55.816;37.036;2023-07-30T11:03:40;98644.91;;;27.16;46.49
72798;BME280;61084;55.816;37.036;2023-07-30T11:06:05;98650.09;;;27.30;45.12
72798;BME280;61084;55.816;37.036;2023-07-30T11:11:05;98656.63;;;26.88;45.71
72798;BME280;61084;55.816;37.036;2023-07-30T11:13:44;98654.06;;;26.67;44.66
72798;BME280;61084;55.816;37.036;2023-07-30T11:16:14;98649.78;;;26.73;45.45
72798;BME280;61084;55.816;37.036;2023-07-30T11:18:41;98645.03;;;26.81;45.59
72798;BME280;61084;55.816;37.036;2023-07-30T11:21:11;98644.03;;;26.96;45.74
72798;BME280;61084;55.816;37.036;2023-07-30T11:23:39;98643.41;;;26.94;44.40
72798;BME280;61084;55.816;37.036;2023-07-30T11:26:08;98637.78;;;26.95;45.06
72798;BME280;61084;55.816;37.036;2023-07-30T11:28:38;98640.94;;;26.99;44.23
72798;BME280;61084;55.816;37.036;2023-07-30T11:31:13;98648.81;;;27.07;44.03
72798;BME280;61084;55.816;37.036;2023-07-30T11:33:41;98651.75;;;27.12;44.63
72798;BME280;61084;55.816;37.036;2023-07-30T11:36:10;98645.13;;;27.27;45.00
72798;BME280;61084;55.816;37.036;2023-07-30T11:38:37;98649.31;;;27.36;45.19
72798;BME280;61084;55.816;37.036;2023-07-30T11:41:04;98659.41;;;27.28;44.76
72798;BME280;61084;55.816;37.036;2023-07-30T11:43:31;98658.97;;;27.05;42.21
72798;BME280;61084;55.816;37.036;2023-07-30T11:46:06;98667.03;;;26.92;43.22
72798;BME280;61084;55.816;37.036;2023-07-30T11:48:35;98664.53;;;26.90;44.95
72798;BME280;61084;55.816;37.036;2023-07-30T11:51:01;98655.03;;;27.01;44.26
72798;BME280;61084;55.816;37.036;2023-07-30T11:53:46;98655.44;;;27.11;43.55
72798;BME280;61084;55.816;37.036;2023-07-30T11:56:38;98658.38;;;27.22;42.95
72798;BME280;61084;55.816;37.036;2023-07-30T11:59:06;98663.34;;;27.25;44.32
72798;BME280;61084;55.816;37.036;2023-07-30T12:01:34;98669.41;;;27.27;44.62
72798;BME280;61084;55.816;37.036;2023-07-30T12:04:05;98656.72;;;27.21;44.37
72798;BME280;61084;55.816;37.036;2023-07-30T12:06:46;98656.09;;;27.32;44.26
72798;BME280;61084;55.816;37.036;2023-07-30T12:09:15;98672.34;;;27.52;45.33
72798;BME280;61084;55.816;37.036;2023-07-30T12:11:53;98664.88;;;27.54;41.35
72798;BME280;61084;55.816;37.036;2023-07-30T12:14:22;98660.31;;;27.61;44.25
72798;BME280;61084;55.816;37.036;2023-07-30T12:16:51;98666.13;;;27.64;42.83
72798;BME280;61084;55.816;37.036;2023-07-30T12:19:17;98665.50;;;27.62;39.26
72798;BME280;61084;55.816;37.036;2023-07-30T12:21:43;98664.47;;;27.63;42.80
72798;BME280;61084;55.816;37.036;2023-07-30T12:24:09;98669.88;;;27.70;41.39
72798;BME280;61084;55.816;37.036;2023-07-30T12:26:34;98671.94;;;27.55;43.34
72798;BME280;61084;55.816;37.036;2023-07-30T12:29:00;98665.28;;;27.38;40.96
72798;BME280;61084;55.816;37.036;2023-07-30T12:31:26;98673.50;;;27.23;42.81
72798;BME280;61084;55.816;37.036;2023-07-30T12:33:52;98666.66;;;27.08;42.16
72798;BME280;61084;55.816;37.036;2023-07-30T12:36:18;98670.34;;;27.00;42.87
72798;BME280;61084;55.816;37.036;2023-07-30T12:38:43;98670.78;;;27.04;41.60
72798;BME280;61084;55.816;37.036;2023-07-30T12:41:09;98662.94;;;27.15;43.74
72798;BME280;61084;55.816;37.036;2023-07-30T12:43:35;98662.09;;;27.21;40.95
72798;BME280;61084;55.816;37.036;2023-07-30T12:46:01;98664.19;;;27.32;40.84
72798;BME280;61084;55.816;37.036;2023-07-30T12:48:27;98660.53;;;27.46;42.32
72798;BME280;61084;55.816;37.036;2023-07-30T12:50:53;98662.41;;;27.59;40.67
72798;BME280;61084;55.816;37.036;2023-07-30T12:53:19;98657.00;;;27.66;42.69
72798;BME280;61084;55.816;37.036;2023-07-30T12:55:45;98657.22;;;27.84;42.84